sensor_id;sensor_type;location;lat;lon;timestamp;P1;durP1;ratioP1;P2;durP2;ratioP2
64061;SDS011;50308;47.438;-1.528;2023-05-10T00:01:47;9.13;;;3.13;;
64061;SDS011;50308;47.438;-1.528;2023-05-10T00:04:13;14.43;;;1.83;;
64061;SDS011;50308;47.438;-1.528;2023-05-10T00:06:39;8.27;;;1.48;;
64061;SDS011;50308;47.438;-1.528;2023-05-10T00:09:05;11.52;;;2.05;;
64061;SDS011;50308;47.438;-1.528;2023-05-10T00:11:30;7.88;;;2.63;;
64061;SDS011;50308;47.438;-1.528;2023-05-10T00:13:56;8.93;;;2.15;;
64061;SDS011;50308;47.438;-1.528;2023-05-10T00:16:22;10.55;;;2.50;;
64061;SDS011;50308;47.438;-1.528;2023-05-10T00:18:48;8.05;;;1.83;;
64061;SDS011;50308;47.438;-1.528;2023-05-10T00:21:13;7.85;;;1.70;;
64061;SDS011;50308;47.438;-1.528;2023-05-10T00:23:39;8.00;;;2.13;;
64061;SDS011;50308;47.438;-1.528;2023-05-10T00:26:05;10.57;;;2.35;;
64061;SDS011;50308;47.438;-1.528;2023-05-10T00:28:31;6.53;;;1.60;;
64061;SDS011;50308;47.438;-1.528;2023-05-10T00:30:56;11.35;;;1.77;;
64061;SDS011;50308;47.438;-1.528;2023-05-10T00:33:22;6.35;;;2.45;;
64061;SDS011;50308;47.438;-1.528;2023-05-10T00:35:48;6.50;;;2.00;;
64061;SDS011;50308;47.438;-1.528;2023-05-10T00:38:13;7.40;;;3.47;;
64061;SDS011;50308;47.438;-1.528;2023-05-10T00:40:39;8.82;;;2.08;;
64061;SDS011;50308;47.438;-1.528;2023-05-10T00:43:05;5.97;;;1.83;;
64061;SDS011;50308;47.438;-1.528;2023-05-10T00:45:32;11.50;;;2.28;;
64061;SDS011;50308;47.438;-1.528;2023-05-10T00:48:00;7.15;;;2.08;;
64061;SDS011;50308;47.438;-1.528;2023-05-10T00:50:27;12.02;;;2.85;;
64061;SDS011;50308;47.438;-1.528;2023-05-10T00:52:53;9.95;;;1.90;;
64061;SDS011;50308;47.438;-1.528;2023-05-10T00:55:19;19.33;;;5.15;;
64061;SDS011;50308;47.438;-1.528;2023-05-10T00:57:45;6.97;;;1.42;;
64061;SDS011;50308;47.438;-1.528;2023-05-10T01:00:12;7.80;;;1.88;;
64061;SDS011;50308;47.438;-1.528;2023-05-10T01:05:09;6.95;;;1.98;;
64061;SDS011;50308;47.438;-1.528;2023-05-10T01:07:34;13.68;;;3.30;;
64061;SDS011;50308;47.438;-1.528;2023-05-10T01:10:00;13.40;;;2.83;;
64061;SDS011;50308;47.438;-1.528;2023-05-10T01:12:26;7.50;;;1.70;;
64061;SDS011;50308;47.438;-1.528;2023-05-10T01:14:52;12.45;;;2.10;;
64061;SDS011;50308;47.438;-1.528;2023-05-10T01:17:19;7.65;;;2.85;;
64061;SDS011;50308;47.438;-1.528;2023-05-10T01:19:45;11.00;;;1.75;;
64061;SDS011;50308;47.438;-1.528;2023-05-10T01:22:16;8.90;;;1.70;;
64061;SDS011;50308;47.438;-1.528;2023-05-10T01:30:35;11.50;;;3.03;;
64061;SDS011;50308;47.438;-1.528;2023-05-10T01:36:19;7.68;;;2.20;;
64061;SDS011;50308;47.438;-1.528;2023-05-10T01:39:32;9.18;;;2.42;;
64061;SDS011;50308;47.438;-1.528;2023-05-10T01:44:34;9.60;;;1.65;;
64061;SDS011;50308;47.438;-1.528;2023-05-10T01:47:09;8.68;;;2.47;;
64061;SDS011;50308;47.438;-1.528;2023-05-10T01:49:59;7.85;;;1.80;;
64061;SDS011;50308;47.438;-1.528;2023-05-10T01:52:30;5.40;;;1.67;;
64061;SDS011;50308;47.438;-1.528;2023-05-10T01:55:14;10.65;;;2.33;;
64061;SDS011;50308;47.438;-1.528;2023-05-10T01:57:42;10.68;;;2.83;;
64061;SDS011;50308;47.438;-1.528;2023-05-10T02:00:11;11.13;;;2.30;;
64061;SDS011;50308;47.438;-1.528;2023-05-10T02:02:42;6.65;;;1.75;;
64061;SDS011;50308;47.438;-1.528;2023-05-10T02:05:11;15.43;;;2.47;;
64061;SDS011;50308;47.438;-1.528;2023-05-10T02:07:38;10.05;;;3.95;;
64061;SDS011;50308;47.438;-1.528;2023-05-10T02:10:05;5.68;;;1.60;;
64061;SDS011;50308;47.438;-1.528;2023-05-10T02:12:35;12.60;;;1.90;;
64061;SDS011;50308;47.438;-1.528;2023-05-10T02:15:06;9.75;;;2.13;;
64061;SDS011;50308;47.438;-1.528;2023-05-10T02:17:34;13.10;;;2.72;;
64061;SDS011;50308;47.438;-1.528;2023-05-10T02:20:02;16.00;;;2.55;;
64061;SDS011;50308;47.438;-1.528;2023-05-10T02:22:30;12.50;;;2.20;;
64061;SDS011;50308;47.438;-1.528;2023-05-10T02:24:57;12.48;;;2.95;;
64061;SDS011;50308;47.438;-1.528;2023-05-10T02:27:25;11.90;;;2.17;;
64061;SDS011;50308;47.438;-1.528;2023-05-10T02:29:52;12.07;;;2.38;;
64061;SDS011;50308;47.438;-1.528;2023-05-10T02:32:19;7.30;;;2.15;;
64061;SDS011;50308;47.438;-1.528;2023-05-10T02:34:46;12.73;;;3.05;;
64061;SDS011;50308;47.438;-1.528;2023-05-10T02:37:17;7.30;;;2.33;;
64061;SDS011;50308;47.438;-1.528;2023-05-10T02:39:48;17.30;;;3.55;;
64061;SDS011;50308;47.438;-1.528;2023-05-10T02:42:16;12.82;;;1.95;;
64061;SDS011;50308;47.438;-1.528;2023-05-10T02:44:47;9.63;;;3.28;;
64061;SDS011;50308;47.438;-1.528;2023-05-10T02:47:15;8.73;;;2.53;;
64061;SDS011;50308;47.438;-1.528;2023-05-10T02:49:41;13.57;;;2.42;;
64061;SDS011;50308;47.438;-1.528;2023-05-10T02:52:07;8.48;;;2.20;;
64061;SDS011;50308;47.438;-1.528;2023-05-10T02:54:39;15.85;;;2.70;;
64061;SDS011;50308;47.438;-1.528;2023-05-10T02:57:11;10.52;;;2.63;;
64061;SDS011;50308;47.438;-1.528;2023-05-10T02:59:44;8.77;;;2.22;;
64061;SDS011;50308;47.438;-1.528;2023-05-10T03:02:12;7.18;;;1.70;;
64061;SDS011;50308;47.438;-1.528;2023-05-10T03:04:38;9.02;;;2.70;;
64061;SDS011;50308;47.438;-1.528;2023-05-10T03:07:03;10.63;;;3.00;;
64061;SDS011;50308;47.438;-1.528;2023-05-10T03:09:30;9.32;;;1.83;;
64061;SDS011;50308;47.438;-1.528;2023-05-10T03:14:57;5.97;;;2.00;;
64061;SDS011;50308;47.438;-1.528;2023-05-10T03:17:47;6.22;;;1.85;;
64061;SDS011;50308;47.438;-1.528;2023-05-10T03:20:36;9.68;;;2.72;;
64061;SDS011;50308;47.438;-1.528;2023-05-10T03:23:22;9.13;;;2.28;;
64061;SDS011;50308;47.438;-1.528;2023-05-10T03:25:49;6.85;;;2.20;;
64061;SDS011;50308;47.438;-1.528;2023-05-10T03:28:16;16.92;;;4.93;;
64061;SDS011;50308;47.438;-1.528;2023-05-10T03:30:43;9.65;;;2.42;;
64061;SDS011;50308;47.438;-1.528;2023-05-10T03:33:11;9.32;;;1.98;;
64061;SDS011;50308;47.438;-1.528;2023-05-10T03:35:38;14.93;;;2.60;;
64061;SDS011;50308;47.438;-1.528;2023-05-10T03:38:03;9.35;;;2.55;;
64061;SDS011;50308;47.438;-1.528;2023-05-10T03:40:29;9.82;;;2.38;;
64061;SDS011;50308;47.438;-1.528;2023-05-10T03:42:57;16.52;;;3.47;;
64061;SDS011;50308;47.438;-1.528;2023-05-10T03:45:23;10.75;;;1.88;;
64061;SDS011;50308;47.438;-1.528;2023-05-10T03:47:49;16.77;;;3.28;;
64061;SDS011;50308;47.438;-1.528;2023-05-10T03:50:15;13.65;;;3.88;;
64061;SDS011;50308;47.438;-1.528;2023-05-10T03:52:40;10.98;;;2.90;;
64061;SDS011;50308;47.438;-1.528;2023-05-10T03:55:06;13.88;;;2.33;;
64061;SDS011;50308;47.438;-1.528;2023-05-10T03:57:33;11.00;;;2.67;;
64061;SDS011;50308;47.438;-1.528;2023-05-10T03:59:59;9.93;;;2.53;;
64061;SDS011;50308;47.438;-1.528;2023-05-10T04:02:24;12.38;;;2.55;;
64061;SDS011;50308;47.438;-1.528;2023-05-10T04:04:50;11.88;;;2.35;;
64061;SDS011;50308;47.438;-1.528;2023-05-10T04:07:16;10.68;;;2.80;;
64061;SDS011;50308;47.438;-1.528;2023-05-10T04:09:42;11.18;;;2.47;;
64061;SDS011;50308;47.438;-1.528;2023-05-10T04:12:08;11.82;;;3.00;;
64061;SDS011;50308;47.438;-1.528;2023-05-10T04:14:34;15.55;;;2.90;;
64061;SDS011;50308;47.438;-1.528;2023-05-10T04:17:00;10.23;;;2.47;;
64061;SDS011;50308;47.438;-1.528;2023-05-10T04:19:29;11.57;;;1.88;;
64061;SDS011;50308;47.438;-1.528;2023-05-10T04:21:55;15.95;;;2.83;;
64061;SDS011;50308;47.438;-1.528;2023-05-10T04:24:21;7.47;;;2.72;;
64061;SDS011;50308;47.438;-1.528;2023-05-10T04:26:46;11.57;;;2.45;;
64061;SDS011;50308;47.438;-1.528;2023-05-10T04:29:12;13.48;;;2.53;;
64061;SDS011;50308;47.438;-1.528;2023-05-10T04:31:38;13.45;;;2.58;;
64061;SDS011;50308;47.438;-1.528;2023-05-10T04:34:03;13.38;;;2.63;;
64061;SDS011;50308;47.438;-1.528;2023-05-10T04:36:30;11.15;;;2.55;;
64061;SDS011;50308;47.438;-1.528;2023-05-10T04:38:57;13.63;;;2.15;;
64061;SDS011;50308;47.438;-1.528;2023-05-10T04:41:23;7.05;;;2.42;;
64061;SDS011;50308;47.438;-1.528;2023-05-10T04:43:50;10.00;;;2.05;;
64061;SDS011;50308;47.438;-1.528;2023-05-10T04:46:16;12.57;;;2.78;;
64061;SDS011;50308;47.438;-1.528;2023-05-10T04:48:41;14.15;;;2.72;;
64061;SDS011;50308;47.438;-1.528;2023-05-10T04:51:07;12.98;;;2.40;;
64061;SDS011;50308;47.438;-1.528;2023-05-10T04:53:33;11.45;;;4.53;;
64061;SDS011;50308;47.438;-1.528;2023-05-10T04:55:58;12.20;;;4.38;;
64061;SDS011;50308;47.438;-1.528;2023-05-10T04:58:24;10.65;;;2.05;;
64061;SDS011;50308;47.438;-1.528;2023-05-10T05:00:50;10.40;;;3.67;;
64061;SDS011;50308;47.438;-1.528;2023-05-10T05:03:15;8.95;;;2.17;;
64061;SDS011;50308;47.438;-1.528;2023-05-10T05:05:41;11.90;;;3.15;;
64061;SDS011;50308;47.438;-1.528;2023-05-10T05:08:08;14.80;;;2.85;;
64061;SDS011;50308;47.438;-1.528;2023-05-10T05:10:33;15.73;;;2.67;;
64061;SDS011;50308;47.438;-1.528;2023-05-10T05:12:59;15.10;;;3.58;;
64061;SDS011;50308;47.438;-1.528;2023-05-10T05:15:25;19.50;;;4.47;;
64061;SDS011;50308;47.438;-1.528;2023-05-10T05:17:51;14.10;;;2.50;;
64061;SDS011;50308;47.438;-1.528;2023-05-10T05:20:17;17.25;;;3.03;;
64061;SDS011;50308;47.438;-1.528;2023-05-10T05:22:44;14.80;;;3.13;;
64061;SDS011;50308;47.438;-1.528;2023-05-10T05:25:10;11.68;;;2.55;;
64061;SDS011;50308;47.438;-1.528;2023-05-10T05:27:36;12.20;;;3.28;;
64061;SDS011;50308;47.438;-1.528;2023-05-10T05:30:02;14.13;;;2.50;;
64061;SDS011;50308;47.438;-1.528;2023-05-10T05:32:29;14.63;;;2.88;;
64061;SDS011;50308;47.438;-1.528;2023-05-10T05:34:55;10.60;;;2.72;;
64061;SDS011;50308;47.438;-1.528;2023-05-10T05:37:21;11.10;;;2.63;;
64061;SDS011;50308;47.438;-1.528;2023-05-10T05:39:47;12.95;;;2.17;;
64061;SDS011;50308;47.438;-1.528;2023-05-10T05:42:13;15.73;;;3.80;;
64061;SDS011;50308;47.438;-1.528;2023-05-10T05:44:39;18.35;;;5.18;;
64061;SDS011;50308;47.438;-1.528;2023-05-10T05:47:05;9.15;;;3.05;;
64061;SDS011;50308;47.438;-1.528;2023-05-10T05:49:31;15.77;;;4.55;;
64061;SDS011;50308;47.438;-1.528;2023-05-10T05:52:01;8.30;;;2.08;;
64061;SDS011;50308;47.438;-1.528;2023-05-10T05:54:27;13.35;;;3.17;;
64061;SDS011;50308;47.438;-1.528;2023-05-10T05:56:57;22.05;;;3.65;;
64061;SDS011;50308;47.438;-1.528;2023-05-10T05:59:23;19.45;;;3.17;;
64061;SDS011;50308;47.438;-1.528;2023-05-10T06:01:49;14.80;;;3.10;;
64061;SDS011;50308;47.438;-1.528;2023-05-10T06:04:15;12.65;;;2.30;;
64061;SDS011;50308;47.438;-1.528;2023-05-10T06:06:41;15.20;;;2.60;;
64061;SDS011;50308;47.438;-1.528;2023-05-10T06:09:07;18.88;;;2.75;;
64061;SDS011;50308;47.438;-1.528;2023-05-10T06:11:33;14.48;;;3.17;;
64061;SDS011;50308;47.438;-1.528;2023-05-10T06:13:59;13.77;;;2.85;;
64061;SDS011;50308;47.438;-1.528;2023-05-10T06:16:26;13.93;;;2.63;;
64061;SDS011;50308;47.438;-1.528;2023-05-10T06:18:52;20.48;;;2.75;;
64061;SDS011;50308;47.438;-1.528;2023-05-10T06:21:17;14.82;;;2.95;;
64061;SDS011;50308;47.438;-1.528;2023-05-10T06:23:43;15.45;;;2.60;;
64061;SDS011;50308;47.438;-1.528;2023-05-10T06:26:09;10.63;;;2.20;;
64061;SDS011;50308;47.438;-1.528;2023-05-10T06:28:35;14.50;;;2.97;;
64061;SDS011;50308;47.438;-1.528;2023-05-10T06:31:03;11.88;;;2.78;;
64061;SDS011;50308;47.438;-1.528;2023-05-10T06:33:29;13.07;;;3.03;;
64061;SDS011;50308;47.438;-1.528;2023-05-10T06:35:55;11.00;;;2.28;;
64061;SDS011;50308;47.438;-1.528;2023-05-10T06:38:20;16.20;;;5.38;;
64061;SDS011;50308;47.438;-1.528;2023-05-10T06:40:46;9.88;;;3.05;;
64061;SDS011;50308;47.438;-1.528;2023-05-10T06:43:12;12.20;;;2.50;;
64061;SDS011;50308;47.438;-1.528;2023-05-10T06:45:38;14.18;;;2.55;;
64061;SDS011;50308;47.438;-1.528;2023-05-10T06:48:03;23.95;;;3.53;;
64061;SDS011;50308;47.438;-1.528;2023-05-10T06:50:29;11.93;;;2.75;;
64061;SDS011;50308;47.438;-1.528;2023-05-10T06:52:55;14.13;;;2.38;;
64061;SDS011;50308;47.438;-1.528;2023-05-10T06:55:20;15.32;;;3.33;;
64061;SDS011;50308;47.438;-1.528;2023-05-10T06:57:46;17.20;;;2.85;;
64061;SDS011;50308;47.438;-1.528;2023-05-10T07:00:12;19.40;;;2.72;;
64061;SDS011;50308;47.438;-1.528;2023-05-10T07:02:39;18.00;;;2.97;;
64061;SDS011;50308;47.438;-1.528;2023-05-10T07:05:04;9.90;;;3.28;;
64061;SDS011;50308;47.438;-1.528;2023-05-10T07:07:31;10.85;;;2.20;;
64061;SDS011;50308;47.438;-1.528;2023-05-10T07:09:56;19.77;;;3.35;;
64061;SDS011;50308;47.438;-1.528;2023-05-10T07:12:23;9.20;;;2.13;;
64061;SDS011;50308;47.438;-1.528;2023-05-10T07:14:49;16.05;;;2.95;;
64061;SDS011;50308;47.438;-1.528;2023-05-10T07:17:14;9.05;;;2.25;;
64061;SDS011;50308;47.438;-1.528;2023-05-10T07:19:40;18.45;;;3.25;;
64061;SDS011;50308;47.438;-1.528;2023-05-10T07:22:06;17.70;;;2.90;;
64061;SDS011;50308;47.438;-1.528;2023-05-10T07:24:32;15.13;;;3.67;;
64061;SDS011;50308;47.438;-1.528;2023-05-10T07:26:58;19.63;;;2.90;;
64061;SDS011;50308;47.438;-1.528;2023-05-10T07:29:24;22.20;;;3.08;;
64061;SDS011;50308;47.438;-1.528;2023-05-10T07:31:50;17.15;;;3.05;;
64061;SDS011;50308;47.438;-1.528;2023-05-10T07:34:16;16.00;;;3.45;;
64061;SDS011;50308;47.438;-1.528;2023-05-10T07:36:42;15.68;;;3.30;;
64061;SDS011;50308;47.438;-1.528;2023-05-10T07:39:07;20.23;;;3.35;;
64061;SDS011;50308;47.438;-1.528;2023-05-10T07:41:33;14.18;;;2.92;;
64061;SDS011;50308;47.438;-1.528;2023-05-10T07:43:59;15.63;;;2.88;;
64061;SDS011;50308;47.438;-1.528;2023-05-10T07:46:25;20.23;;;4.93;;
64061;SDS011;50308;47.438;-1.528;2023-05-10T07:48:50;18.85;;;4.30;;
64061;SDS011;50308;47.438;-1.528;2023-05-10T07:51:16;12.32;;;2.38;;
64061;SDS011;50308;47.438;-1.528;2023-05-10T07:53:42;11.07;;;3.65;;
64061;SDS011;50308;47.438;-1.528;2023-05-10T07:56:30;17.52;;;3.80;;
64061;SDS011;50308;47.438;-1.528;2023-05-10T07:58:56;11.93;;;2.85;;
64061;SDS011;50308;47.438;-1.528;2023-05-10T08:01:23;13.85;;;2.58;;
64061;SDS011;50308;47.438;-1.528;2023-05-10T08:03:49;14.40;;;2.83;;
64061;SDS011;50308;47.438;-1.528;2023-05-10T08:06:16;12.48;;;2.83;;
64061;SDS011;50308;47.438;-1.528;2023-05-10T08:08:43;13.93;;;2.78;;
64061;SDS011;50308;47.438;-1.528;2023-05-10T08:11:14;25.48;;;4.40;;
64061;SDS011;50308;47.438;-1.528;2023-05-10T08:13:43;10.10;;;2.25;;
64061;SDS011;50308;47.438;-1.528;2023-05-10T08:16:09;15.40;;;2.97;;
64061;SDS011;50308;47.438;-1.528;2023-05-10T08:18:35;13.65;;;2.80;;
64061;SDS011;50308;47.438;-1.528;2023-05-10T08:21:02;26.75;;;4.07;;
64061;SDS011;50308;47.438;-1.528;2023-05-10T08:23:27;37.92;;;4.55;;
64061;SDS011;50308;47.438;-1.528;2023-05-10T08:25:53;27.77;;;4.90;;
64061;SDS011;50308;47.438;-1.528;2023-05-10T08:28:19;11.23;;;3.33;;
64061;SDS011;50308;47.438;-1.528;2023-05-10T08:30:44;11.32;;;2.35;;
64061;SDS011;50308;47.438;-1.528;2023-05-10T08:33:10;13.05;;;2.42;;
64061;SDS011;50308;47.438;-1.528;2023-05-10T08:35:36;12.82;;;2.53;;
64061;SDS011;50308;47.438;-1.528;2023-05-10T08:38:01;9.00;;;2.95;;
64061;SDS011;50308;47.438;-1.528;2023-05-10T08:40:27;10.90;;;3.05;;
64061;SDS011;50308;47.438;-1.528;2023-05-10T08:42:58;25.20;;;4.80;;
64061;SDS011;50308;47.438;-1.528;2023-05-10T08:45:33;10.90;;;3.17;;
64061;SDS011;50308;47.438;-1.528;2023-05-10T08:48:02;20.92;;;4.30;;
64061;SDS011;50308;47.438;-1.528;2023-05-10T08:50:31;20.73;;;4.18;;
64061;SDS011;50308;47.438;-1.528;2023-05-10T08:52:57;11.43;;;3.35;;
64061;SDS011;50308;47.438;-1.528;2023-05-10T08:55:26;20.52;;;4.57;;
64061;SDS011;50308;47.438;-1.528;2023-05-10T08:57:53;13.95;;;3.85;;
64061;SDS011;50308;47.438;-1.528;2023-05-10T09:00:18;14.43;;;3.10;;
64061;SDS011;50308;47.438;-1.528;2023-05-10T09:02:45;11.70;;;3.40;;
64061;SDS011;50308;47.438;-1.528;2023-05-10T09:05:11;9.25;;;3.38;;
64061;SDS011;50308;47.438;-1.528;2023-05-10T09:07:37;13.30;;;2.72;;
64061;SDS011;50308;47.438;-1.528;2023-05-10T09:10:04;9.75;;;3.92;;
64061;SDS011;50308;47.438;-1.528;2023-05-10T09:12:31;9.18;;;2.78;;
64061;SDS011;50308;47.438;-1.528;2023-05-10T09:14:57;11.63;;;3.42;;
64061;SDS011;50308;47.438;-1.528;2023-05-10T09:17:24;12.32;;;3.95;;
64061;SDS011;50308;47.438;-1.528;2023-05-10T09:20:01;15.57;;;2.83;;
64061;SDS011;50308;47.438;-1.528;2023-05-10T09:22:29;12.73;;;2.88;;
64061;SDS011;50308;47.438;-1.528;2023-05-10T09:25:08;16.77;;;2.97;;
64061;SDS011;50308;47.438;-1.528;2023-05-10T09:27:39;9.90;;;3.13;;
64061;SDS011;50308;47.438;-1.528;2023-05-10T09:30:05;11.30;;;2.90;;
64061;SDS011;50308;47.438;-1.528;2023-05-10T09:32:42;9.88;;;3.03;;
64061;SDS011;50308;47.438;-1.528;2023-05-10T09:37:42;10.20;;;3.05;;
64061;SDS011;50308;47.438;-1.528;2023-05-10T09:40:19;19.60;;;4.03;;
64061;SDS011;50308;47.438;-1.528;2023-05-10T09:45:36;12.15;;;2.95;;
64061;SDS011;50308;47.438;-1.528;2023-05-10T09:48:02;11.55;;;4.88;;
64061;SDS011;50308;47.438;-1.528;2023-05-10T09:50:28;11.68;;;2.67;;
64061;SDS011;50308;47.438;-1.528;2023-05-10T09:52:59;13.40;;;3.50;;
64061;SDS011;50308;47.438;-1.528;2023-05-10T09:58:03;12.70;;;3.00;;
64061;SDS011;50308;47.438;-1.528;2023-05-10T10:00:35;11.60;;;2.17;;
64061;SDS011;50308;47.438;-1.528;2023-05-10T10:03:02;9.63;;;2.67;;
64061;SDS011;50308;47.438;-1.528;2023-05-10T10:05:28;10.85;;;3.25;;
64061;SDS011;50308;47.438;-1.528;2023-05-10T10:07:59;13.68;;;3.25;;
64061;SDS011;50308;47.438;-1.528;2023-05-10T10:10:25;12.80;;;4.30;;
64061;SDS011;50308;47.438;-1.528;2023-05-10T10:12:52;9.95;;;2.78;;
64061;SDS011;50308;47.438;-1.528;2023-05-10T10:15:18;8.88;;;2.50;;
64061;SDS011;50308;47.438;-1.528;2023-05-10T10:17:45;6.85;;;2.08;;
64061;SDS011;50308;47.438;-1.528;2023-05-10T10:20:11;7.78;;;2.60;;
64061;SDS011;50308;47.438;-1.528;2023-05-10T10:22:37;8.60;;;2.58;;
64061;SDS011;50308;47.438;-1.528;2023-05-10T10:25:03;10.77;;;3.08;;
64061;SDS011;50308;47.438;-1.528;2023-05-10T10:30:13;10.18;;;2.85;;
64061;SDS011;50308;47.438;-1.528;2023-05-10T10:35:49;7.70;;;2.42;;
64061;SDS011;50308;47.438;-1.528;2023-05-10T10:38:17;9.48;;;2.03;;
64061;SDS011;50308;47.438;-1.528;2023-05-10T10:40:43;5.70;;;1.80;;
64061;SDS011;50308;47.438;-1.528;2023-05-10T10:43:24;7.65;;;2.08;;
64061;SDS011;50308;47.438;-1.528;2023-05-10T10:48:47;6.10;;;1.85;;
64061;SDS011;50308;47.438;-1.528;2023-05-10T10:51:13;7.28;;;2.53;;
64061;SDS011;50308;47.438;-1.528;2023-05-10T10:53:40;9.35;;;2.20;;
64061;SDS011;50308;47.438;-1.528;2023-05-10T10:56:09;6.80;;;2.28;;
64061;SDS011;50308;47.438;-1.528;2023-05-10T10:58:37;6.40;;;1.95;;
64061;SDS011;50308;47.438;-1.528;2023-05-10T11:01:13;7.50;;;1.85;;
64061;SDS011;50308;47.438;-1.528;2023-05-10T11:03:54;6.80;;;1.67;;
64061;SDS011;50308;47.438;-1.528;2023-05-10T11:06:30;7.63;;;1.70;;
64061;SDS011;50308;47.438;-1.528;2023-05-10T11:08:56;8.52;;;1.90;;
64061;SDS011;50308;47.438;-1.528;2023-05-10T11:11:22;4.82;;;1.70;;
64061;SDS011;50308;47.438;-1.528;2023-05-10T11:13:48;7.43;;;2.60;;
64061;SDS011;50308;47.438;-1.528;2023-05-10T11:18:54;7.68;;;1.85;;
64061;SDS011;50308;47.438;-1.528;2023-05-10T11:21:27;5.47;;;1.52;;
64061;SDS011;50308;47.438;-1.528;2023-05-10T11:23:54;4.93;;;1.73;;
64061;SDS011;50308;47.438;-1.528;2023-05-10T11:26:22;7.80;;;2.67;;
64061;SDS011;50308;47.438;-1.528;2023-05-10T11:28:50;5.35;;;1.80;;
64061;SDS011;50308;47.438;-1.528;2023-05-10T11:31:24;6.35;;;1.65;;
64061;SDS011;50308;47.438;-1.528;2023-05-10T11:33:55;5.57;;;1.73;;
64061;SDS011;50308;47.438;-1.528;2023-05-10T11:36:24;10.52;;;2.22;;
64061;SDS011;50308;47.438;-1.528;2023-05-10T11:41:18;8.40;;;2.38;;
64061;SDS011;50308;47.438;-1.528;2023-05-10T11:43:51;10.68;;;2.83;;
64061;SDS011;50308;47.438;-1.528;2023-05-10T11:46:18;8.93;;;2.10;;
64061;SDS011;50308;47.438;-1.528;2023-05-10T11:48:46;11.13;;;2.08;;
64061;SDS011;50308;47.438;-1.528;2023-05-10T11:51:15;6.43;;;1.50;;
64061;SDS011;50308;47.438;-1.528;2023-05-10T11:53:44;24.25;;;2.05;;
64061;SDS011;50308;47.438;-1.528;2023-05-10T11:56:10;7.30;;;2.00;;
64061;SDS011;50308;47.438;-1.528;2023-05-10T11:58:37;6.68;;;2.20;;
64061;SDS011;50308;47.438;-1.528;2023-05-10T12:01:04;3.95;;;1.73;;
64061;SDS011;50308;47.438;-1.528;2023-05-10T12:03:31;5.28;;;1.83;;
64061;SDS011;50308;47.438;-1.528;2023-05-10T12:05:57;5.82;;;1.50;;
64061;SDS011;50308;47.438;-1.528;2023-05-10T12:08:25;8.55;;;2.65;;
64061;SDS011;50308;47.438;-1.528;2023-05-10T12:10:52;5.38;;;1.52;;
64061;SDS011;50308;47.438;-1.528;2023-05-10T12:13:19;4.28;;;1.70;;
64061;SDS011;50308;47.438;-1.528;2023-05-10T12:15:45;8.32;;;1.70;;
64061;SDS011;50308;47.438;-1.528;2023-05-10T12:18:12;5.40;;;2.00;;
64061;SDS011;50308;47.438;-1.528;2023-05-10T12:20:38;9.88;;;3.15;;
64061;SDS011;50308;47.438;-1.528;2023-05-10T12:23:05;8.38;;;2.10;;
64061;SDS011;50308;47.438;-1.528;2023-05-10T12:25:33;9.00;;;2.17;;
64061;SDS011;50308;47.438;-1.528;2023-05-10T12:28:00;7.05;;;1.80;;
64061;SDS011;50308;47.438;-1.528;2023-05-10T12:30:30;7.57;;;1.70;;
64061;SDS011;50308;47.438;-1.528;2023-05-10T12:33:30;4.35;;;1.60;;
64061;SDS011;50308;47.438;-1.528;2023-05-10T12:35:49;5.35;;;1.92;;
64061;SDS011;50308;47.438;-1.528;2023-05-10T12:38:24;6.70;;;1.80;;
64061;SDS011;50308;47.438;-1.528;2023-05-10T12:40:54;8.68;;;1.88;;
64061;SDS011;50308;47.438;-1.528;2023-05-10T12:43:24;11.05;;;2.35;;
64061;SDS011;50308;47.438;-1.528;2023-05-10T12:45:50;6.68;;;1.95;;
64061;SDS011;50308;47.438;-1.528;2023-05-10T12:48:15;7.10;;;2.60;;
64061;SDS011;50308;47.438;-1.528;2023-05-10T12:50:41;8.88;;;3.00;;
64061;SDS011;50308;47.438;-1.528;2023-05-10T12:53:07;5.95;;;1.42;;
64061;SDS011;50308;47.438;-1.528;2023-05-10T12:55:33;3.20;;;0.70;;
64061;SDS011;50308;47.438;-1.528;2023-05-10T12:57:59;3.92;;;0.85;;
64061;SDS011;50308;47.438;-1.528;2023-05-10T13:00:25;3.33;;;1.23;;
64061;SDS011;50308;47.438;-1.528;2023-05-10T13:02:51;1.30;;;0.50;;
64061;SDS011;50308;47.438;-1.528;2023-05-10T13:05:17;1.15;;;0.60;;
64061;SDS011;50308;47.438;-1.528;2023-05-10T13:07:42;3.72;;;0.82;;
64061;SDS011;50308;47.438;-1.528;2023-05-10T13:10:09;1.45;;;0.50;;
64061;SDS011;50308;47.438;-1.528;2023-05-10T13:12:35;1.33;;;0.45;;
64061;SDS011;50308;47.438;-1.528;2023-05-10T13:15:01;1.98;;;0.70;;
64061;SDS011;50308;47.438;-1.528;2023-05-10T13:17:27;4.90;;;0.88;;
64061;SDS011;50308;47.438;-1.528;2023-05-10T13:19:53;2.85;;;0.70;;
64061;SDS011;50308;47.438;-1.528;2023-05-10T13:22:19;4.80;;;0.73;;
64061;SDS011;50308;47.438;-1.528;2023-05-10T13:24:45;4.28;;;1.73;;
64061;SDS011;50308;47.438;-1.528;2023-05-10T13:27:11;3.95;;;0.80;;
64061;SDS011;50308;47.438;-1.528;2023-05-10T13:29:36;2.53;;;0.77;;
64061;SDS011;50308;47.438;-1.528;2023-05-10T13:32:02;16.25;;;2.28;;
64061;SDS011;50308;47.438;-1.528;2023-05-10T13:34:28;2.85;;;1.20;;
64061;SDS011;50308;47.438;-1.528;2023-05-10T13:36:53;2.85;;;1.00;;
64061;SDS011;50308;47.438;-1.528;2023-05-10T13:39:21;4.07;;;0.95;;
64061;SDS011;50308;47.438;-1.528;2023-05-10T13:41:46;2.38;;;1.13;;
64061;SDS011;50308;47.438;-1.528;2023-05-10T13:44:13;5.00;;;1.23;;
64061;SDS011;50308;47.438;-1.528;2023-05-10T13:46:39;2.45;;;1.23;;
64061;SDS011;50308;47.438;-1.528;2023-05-10T13:49:06;2.63;;;1.23;;
64061;SDS011;50308;47.438;-1.528;2023-05-10T13:51:33;9.85;;;2.10;;
64061;SDS011;50308;47.438;-1.528;2023-05-10T13:53:59;6.82;;;2.83;;
64061;SDS011;50308;47.438;-1.528;2023-05-10T13:56:25;7.93;;;1.98;;
64061;SDS011;50308;47.438;-1.528;2023-05-10T13:58:50;6.35;;;2.78;;
64061;SDS011;50308;47.438;-1.528;2023-05-10T14:01:16;3.63;;;1.30;;
64061;SDS011;50308;47.438;-1.528;2023-05-10T14:03:42;2.83;;;1.20;;
64061;SDS011;50308;47.438;-1.528;2023-05-10T14:06:08;4.03;;;1.20;;
64061;SDS011;50308;47.438;-1.528;2023-05-10T14:08:34;4.50;;;1.15;;
64061;SDS011;50308;47.438;-1.528;2023-05-10T14:11:00;5.97;;;1.30;;
64061;SDS011;50308;47.438;-1.528;2023-05-10T14:13:26;3.22;;;1.40;;
64061;SDS011;50308;47.438;-1.528;2023-05-10T14:15:52;3.40;;;1.30;;
64061;SDS011;50308;47.438;-1.528;2023-05-10T14:18:18;5.55;;;1.33;;
64061;SDS011;50308;47.438;-1.528;2023-05-10T14:20:44;3.50;;;1.30;;
64061;SDS011;50308;47.438;-1.528;2023-05-10T14:23:10;2.92;;;1.63;;
64061;SDS011;50308;47.438;-1.528;2023-05-10T14:25:36;4.78;;;1.45;;
64061;SDS011;50308;47.438;-1.528;2023-05-10T14:28:03;2.25;;;1.30;;
64061;SDS011;50308;47.438;-1.528;2023-05-10T14:30:28;5.47;;;1.40;;
64061;SDS011;50308;47.438;-1.528;2023-05-10T14:32:56;5.40;;;1.70;;
64061;SDS011;50308;47.438;-1.528;2023-05-10T14:35:23;7.60;;;1.23;;
64061;SDS011;50308;47.438;-1.528;2023-05-10T14:37:49;7.70;;;2.25;;
64061;SDS011;50308;47.438;-1.528;2023-05-10T14:40:14;2.33;;;0.95;;
64061;SDS011;50308;47.438;-1.528;2023-05-10T14:42:41;2.75;;;1.00;;
64061;SDS011;50308;47.438;-1.528;2023-05-10T14:45:08;2.85;;;1.40;;
64061;SDS011;50308;47.438;-1.528;2023-05-10T14:47:34;2.47;;;1.23;;
64061;SDS011;50308;47.438;-1.528;2023-05-10T14:50:00;5.30;;;1.50;;
64061;SDS011;50308;47.438;-1.528;2023-05-10T14:52:26;4.00;;;1.38;;
64061;SDS011;50308;47.438;-1.528;2023-05-10T14:54:52;2.75;;;1.25;;
64061;SDS011;50308;47.438;-1.528;2023-05-10T14:57:18;6.03;;;1.48;;
64061;SDS011;50308;47.438;-1.528;2023-05-10T14:59:44;4.95;;;1.48;;
64061;SDS011;50308;47.438;-1.528;2023-05-10T15:02:10;4.55;;;2.13;;
64061;SDS011;50308;47.438;-1.528;2023-05-10T15:04:36;2.45;;;1.52;;
64061;SDS011;50308;47.438;-1.528;2023-05-10T15:07:01;4.43;;;1.30;;
64061;SDS011;50308;47.438;-1.528;2023-05-10T15:09:28;2.13;;;1.38;;